sensor_id;sensor_type;location;lat;lon;timestamp;P1;durP1;ratioP1;P2;durP2;ratioP2
64225;SDS011;50545;56.064;26.178;2022-08-19T00:01:44;7.72;;;5.38;;
64225;SDS011;50545;56.064;26.178;2022-08-19T00:04:20;8.68;;;5.88;;
64225;SDS011;50545;56.064;26.178;2022-08-19T00:06:51;7.30;;;5.28;;
64225;SDS011;50545;56.064;26.178;2022-08-19T00:09:19;8.10;;;5.50;;
64225;SDS011;50545;56.064;26.178;2022-08-19T00:11:48;7.85;;;5.18;;
64225;SDS011;50545;56.064;26.178;2022-08-19T00:14:17;8.07;;;5.43;;
64225;SDS011;50545;56.064;26.178;2022-08-19T00:16:45;8.85;;;5.00;;
64225;SDS011;50545;56.064;26.178;2022-08-19T00:19:14;8.88;;;6.10;;
64225;SDS011;50545;56.064;26.178;2022-08-19T00:21:42;6.90;;;5.38;;
64225;SDS011;50545;56.064;26.178;2022-08-19T00:24:10;7.45;;;5.82;;
64225;SDS011;50545;56.064;26.178;2022-08-19T00:26:39;7.90;;;5.65;;
64225;SDS011;50545;56.064;26.178;2022-08-19T00:29:08;6.90;;;5.32;;
64225;SDS011;50545;56.064;26.178;2022-08-19T00:31:36;8.15;;;5.07;;
64225;SDS011;50545;56.064;26.178;2022-08-19T00:34:03;7.55;;;5.82;;
64225;SDS011;50545;56.064;26.178;2022-08-19T00:36:31;11.88;;;5.47;;
64225;SDS011;50545;56.064;26.178;2022-08-19T00:38:59;9.05;;;5.30;;
64225;SDS011;50545;56.064;26.178;2022-08-19T00:41:27;7.40;;;5.10;;
64225;SDS011;50545;56.064;26.178;2022-08-19T00:46:31;8.73;;;5.28;;
64225;SDS011;50545;56.064;26.178;2022-08-19T00:49:00;8.50;;;5.10;;
64225;SDS011;50545;56.064;26.178;2022-08-19T00:51:29;9.68;;;5.40;;
64225;SDS011;50545;56.064;26.178;2022-08-19T00:53:58;10.90;;;5.25;;
64225;SDS011;50545;56.064;26.178;2022-08-19T00:56:27;7.68;;;5.70;;
64225;SDS011;50545;56.064;26.178;2022-08-19T00:58:55;9.27;;;5.82;;
64225;SDS011;50545;56.064;26.178;2022-08-19T01:01:24;9.18;;;5.60;;
64225;SDS011;50545;56.064;26.178;2022-08-19T01:03:51;6.72;;;5.22;;
64225;SDS011;50545;56.064;26.178;2022-08-19T01:06:24;6.80;;;5.55;;
64225;SDS011;50545;56.064;26.178;2022-08-19T01:08:53;7.80;;;5.75;;
64225;SDS011;50545;56.064;26.178;2022-08-19T01:11:21;8.23;;;5.15;;
64225;SDS011;50545;56.064;26.178;2022-08-19T01:13:48;9.05;;;5.97;;
64225;SDS011;50545;56.064;26.178;2022-08-19T01:16:18;8.48;;;5.18;;
64225;SDS011;50545;56.064;26.178;2022-08-19T01:18:48;6.68;;;5.15;;
64225;SDS011;50545;56.064;26.178;2022-08-19T01:24:04;6.95;;;4.70;;
64225;SDS011;50545;56.064;26.178;2022-08-19T01:26:37;9.95;;;5.00;;
64225;SDS011;50545;56.064;26.178;2022-08-19T01:29:09;7.40;;;4.88;;
64225;SDS011;50545;56.064;26.178;2022-08-19T01:31:37;8.02;;;5.40;;
64225;SDS011;50545;56.064;26.178;2022-08-19T01:34:05;7.30;;;4.97;;
64225;SDS011;50545;56.064;26.178;2022-08-19T01:36:38;7.03;;;5.28;;
64225;SDS011;50545;56.064;26.178;2022-08-19T01:39:12;6.07;;;4.82;;
64225;SDS011;50545;56.064;26.178;2022-08-19T01:41:41;7.95;;;5.22;;
64225;SDS011;50545;56.064;26.178;2022-08-19T01:44:09;6.68;;;4.97;;
64225;SDS011;50545;56.064;26.178;2022-08-19T01:46:45;6.13;;;4.88;;
64225;SDS011;50545;56.064;26.178;2022-08-19T01:49:14;7.60;;;5.18;;
64225;SDS011;50545;56.064;26.178;2022-08-19T01:51:43;7.72;;;5.03;;
64225;SDS011;50545;56.064;26.178;2022-08-19T01:54:11;7.13;;;5.18;;
64225;SDS011;50545;56.064;26.178;2022-08-19T01:57:00;6.38;;;4.85;;
64225;SDS011;50545;56.064;26.178;2022-08-19T01:59:31;8.23;;;5.10;;
64225;SDS011;50545;56.064;26.178;2022-08-19T02:01:59;6.43;;;4.70;;
64225;SDS011;50545;56.064;26.178;2022-08-19T02:04:27;6.65;;;5.35;;
64225;SDS011;50545;56.064;26.178;2022-08-19T02:06:54;6.80;;;5.30;;
64225;SDS011;50545;56.064;26.178;2022-08-19T02:09:21;6.80;;;5.35;;
64225;SDS011;50545;56.064;26.178;2022-08-19T02:11:49;7.63;;;5.22;;
64225;SDS011;50545;56.064;26.178;2022-08-19T02:14:16;6.43;;;5.20;;
64225;SDS011;50545;56.064;26.178;2022-08-19T02:16:43;6.28;;;4.90;;
64225;SDS011;50545;56.064;26.178;2022-08-19T02:19:10;6.60;;;5.00;;
64225;SDS011;50545;56.064;26.178;2022-08-19T02:21:38;6.65;;;5.38;;
64225;SDS011;50545;56.064;26.178;2022-08-19T02:24:05;7.22;;;5.30;;
64225;SDS011;50545;56.064;26.178;2022-08-19T02:26:32;7.70;;;5.38;;
64225;SDS011;50545;56.064;26.178;2022-08-19T02:29:00;7.00;;;5.05;;
64225;SDS011;50545;56.064;26.178;2022-08-19T02:31:27;7.57;;;5.47;;
64225;SDS011;50545;56.064;26.178;2022-08-19T02:33:55;6.57;;;5.20;;
64225;SDS011;50545;56.064;26.178;2022-08-19T02:36:23;7.78;;;5.38;;
64225;SDS011;50545;56.064;26.178;2022-08-19T02:38:51;6.78;;;5.47;;
64225;SDS011;50545;56.064;26.178;2022-08-19T02:41:22;6.10;;;4.97;;
64225;SDS011;50545;56.064;26.178;2022-08-19T02:43:53;6.45;;;5.28;;
64225;SDS011;50545;56.064;26.178;2022-08-19T02:46:41;6.78;;;5.00;;
64225;SDS011;50545;56.064;26.178;2022-08-19T02:49:11;6.43;;;4.88;;
64225;SDS011;50545;56.064;26.178;2022-08-19T02:51:40;6.57;;;5.03;;
64225;SDS011;50545;56.064;26.178;2022-08-19T02:54:09;6.30;;;4.90;;
64225;SDS011;50545;56.064;26.178;2022-08-19T02:56:38;7.88;;;5.25;;
64225;SDS011;50545;56.064;26.178;2022-08-19T02:59:06;6.93;;;4.72;;
64225;SDS011;50545;56.064;26.178;2022-08-19T03:01:38;7.10;;;5.25;;
64225;SDS011;50545;56.064;26.178;2022-08-19T03:04:09;6.78;;;5.22;;
64225;SDS011;50545;56.064;26.178;2022-08-19T03:06:38;6.93;;;4.87;;
64225;SDS011;50545;56.064;26.178;2022-08-19T03:09:06;7.50;;;5.05;;
64225;SDS011;50545;56.064;26.178;2022-08-19T03:11:34;6.95;;;5.00;;
64225;SDS011;50545;56.064;26.178;2022-08-19T03:14:02;7.35;;;4.90;;
64225;SDS011;50545;56.064;26.178;2022-08-19T03:16:30;6.97;;;5.20;;
64225;SDS011;50545;56.064;26.178;2022-08-19T03:21:29;6.13;;;4.88;;
64225;SDS011;50545;56.064;26.178;2022-08-19T03:23:58;6.88;;;5.15;;
64225;SDS011;50545;56.064;26.178;2022-08-19T03:26:27;6.80;;;4.95;;
64225;SDS011;50545;56.064;26.178;2022-08-19T03:28:55;7.47;;;5.30;;
64225;SDS011;50545;56.064;26.178;2022-08-19T03:31:24;8.23;;;5.18;;
64225;SDS011;50545;56.064;26.178;2022-08-19T03:34:12;7.13;;;5.30;;
64225;SDS011;50545;56.064;26.178;2022-08-19T03:36:43;6.70;;;4.97;;
64225;SDS011;50545;56.064;26.178;2022-08-19T03:39:12;6.72;;;4.93;;
64225;SDS011;50545;56.064;26.178;2022-08-19T03:41:40;4.85;;;3.92;;
64225;SDS011;50545;56.064;26.178;2022-08-19T03:44:12;5.50;;;3.72;;
64225;SDS011;50545;56.064;26.178;2022-08-19T03:46:44;6.57;;;3.92;;
64225;SDS011;50545;56.064;26.178;2022-08-19T03:49:13;5.75;;;3.78;;
64225;SDS011;50545;56.064;26.178;2022-08-19T03:51:44;5.70;;;4.03;;
64225;SDS011;50545;56.064;26.178;2022-08-19T03:54:13;6.18;;;4.00;;
64225;SDS011;50545;56.064;26.178;2022-08-19T03:56:42;5.20;;;3.80;;
64225;SDS011;50545;56.064;26.178;2022-08-19T03:59:12;6.07;;;4.22;;
64225;SDS011;50545;56.064;26.178;2022-08-19T04:01:42;7.53;;;4.30;;
64225;SDS011;50545;56.064;26.178;2022-08-19T04:04:09;5.13;;;3.95;;
64225;SDS011;50545;56.064;26.178;2022-08-19T04:06:37;4.97;;;3.50;;
64225;SDS011;50545;56.064;26.178;2022-08-19T04:09:07;4.63;;;3.70;;
64225;SDS011;50545;56.064;26.178;2022-08-19T04:11:38;4.80;;;3.47;;
64225;SDS011;50545;56.064;26.178;2022-08-19T04:14:11;5.07;;;3.75;;
64225;SDS011;50545;56.064;26.178;2022-08-19T04:16:41;4.97;;;3.70;;
64225;SDS011;50545;56.064;26.178;2022-08-19T04:19:11;4.57;;;3.60;;
64225;SDS011;50545;56.064;26.178;2022-08-19T04:21:38;5.75;;;3.67;;
64225;SDS011;50545;56.064;26.178;2022-08-19T04:24:06;5.22;;;3.92;;
64225;SDS011;50545;56.064;26.178;2022-08-19T04:26:36;7.25;;;4.18;;
64225;SDS011;50545;56.064;26.178;2022-08-19T04:29:05;5.55;;;4.25;;
64225;SDS011;50545;56.064;26.178;2022-08-19T04:31:44;7.10;;;4.00;;
64225;SDS011;50545;56.064;26.178;2022-08-19T04:34:13;5.80;;;4.38;;
64225;SDS011;50545;56.064;26.178;2022-08-19T04:36:44;8.20;;;4.57;;
64225;SDS011;50545;56.064;26.178;2022-08-19T04:39:13;5.50;;;4.32;;
64225;SDS011;50545;56.064;26.178;2022-08-19T04:41:43;7.30;;;4.90;;
64225;SDS011;50545;56.064;26.178;2022-08-19T04:44:32;6.72;;;5.18;;
64225;SDS011;50545;56.064;26.178;2022-08-19T04:47:05;8.75;;;5.30;;
64225;SDS011;50545;56.064;26.178;2022-08-19T04:49:36;9.15;;;5.45;;
64225;SDS011;50545;56.064;26.178;2022-08-19T04:52:04;7.68;;;5.47;;
64225;SDS011;50545;56.064;26.178;2022-08-19T04:54:32;8.65;;;5.50;;
64225;SDS011;50545;56.064;26.178;2022-08-19T04:57:05;6.50;;;4.68;;
64225;SDS011;50545;56.064;26.178;2022-08-19T04:59:37;7.22;;;4.78;;
64225;SDS011;50545;56.064;26.178;2022-08-19T05:02:06;7.88;;;5.10;;
64225;SDS011;50545;56.064;26.178;2022-08-19T05:04:35;9.05;;;5.43;;
64225;SDS011;50545;56.064;26.178;2022-08-19T05:07:06;8.93;;;5.50;;
64225;SDS011;50545;56.064;26.178;2022-08-19T05:09:34;8.18;;;5.47;;
64225;SDS011;50545;56.064;26.178;2022-08-19T05:12:22;7.43;;;5.45;;
64225;SDS011;50545;56.064;26.178;2022-08-19T05:14:54;8.85;;;5.40;;
64225;SDS011;50545;56.064;26.178;2022-08-19T05:17:24;9.15;;;5.47;;
64225;SDS011;50545;56.064;26.178;2022-08-19T05:19:55;10.50;;;5.78;;
64225;SDS011;50545;56.064;26.178;2022-08-19T05:22:43;8.52;;;5.40;;
64225;SDS011;50545;56.064;26.178;2022-08-19T05:25:14;9.45;;;6.15;;
64225;SDS011;50545;56.064;26.178;2022-08-19T05:27:47;13.48;;;6.05;;
64225;SDS011;50545;56.064;26.178;2022-08-19T05:30:15;8.07;;;5.63;;
64225;SDS011;50545;56.064;26.178;2022-08-19T05:32:43;8.68;;;5.75;;
64225;SDS011;50545;56.064;26.178;2022-08-19T05:35:11;7.70;;;5.63;;
64225;SDS011;50545;56.064;26.178;2022-08-19T05:37:39;9.85;;;5.78;;
64225;SDS011;50545;56.064;26.178;2022-08-19T05:40:07;7.47;;;5.68;;
64225;SDS011;50545;56.064;26.178;2022-08-19T05:42:36;8.85;;;5.30;;
64225;SDS011;50545;56.064;26.178;2022-08-19T05:45:04;10.02;;;5.88;;
64225;SDS011;50545;56.064;26.178;2022-08-19T05:47:34;10.93;;;5.80;;
64225;SDS011;50545;56.064;26.178;2022-08-19T05:50:07;8.40;;;5.45;;
64225;SDS011;50545;56.064;26.178;2022-08-19T05:52:35;9.32;;;5.82;;
64225;SDS011;50545;56.064;26.178;2022-08-19T05:55:15;8.32;;;5.65;;
64225;SDS011;50545;56.064;26.178;2022-08-19T05:57:43;8.63;;;5.82;;
64225;SDS011;50545;56.064;26.178;2022-08-19T06:00:10;8.77;;;6.15;;
64225;SDS011;50545;56.064;26.178;2022-08-19T06:02:38;11.13;;;6.13;;
64225;SDS011;50545;56.064;26.178;2022-08-19T06:05:06;9.07;;;5.90;;
64225;SDS011;50545;56.064;26.178;2022-08-19T06:07:36;11.18;;;6.15;;
64225;SDS011;50545;56.064;26.178;2022-08-19T06:10:05;9.18;;;5.93;;
64225;SDS011;50545;56.064;26.178;2022-08-19T06:15:03;7.95;;;5.13;;
64225;SDS011;50545;56.064;26.178;2022-08-19T06:17:38;10.77;;;5.72;;
64225;SDS011;50545;56.064;26.178;2022-08-19T06:20:07;8.38;;;5.80;;
64225;SDS011;50545;56.064;26.178;2022-08-19T06:22:41;8.95;;;5.55;;
64225;SDS011;50545;56.064;26.178;2022-08-19T06:25:10;8.85;;;5.82;;
64225;SDS011;50545;56.064;26.178;2022-08-19T06:27:39;9.10;;;5.63;;
64225;SDS011;50545;56.064;26.178;2022-08-19T06:30:27;10.90;;;6.00;;
64225;SDS011;50545;56.064;26.178;2022-08-19T06:32:54;10.13;;;5.38;;
64225;SDS011;50545;56.064;26.178;2022-08-19T06:35:21;11.60;;;6.55;;
64225;SDS011;50545;56.064;26.178;2022-08-19T06:37:48;9.07;;;5.70;;
64225;SDS011;50545;56.064;26.178;2022-08-19T06:40:16;8.60;;;5.55;;
64225;SDS011;50545;56.064;26.178;2022-08-19T06:42:43;11.73;;;5.90;;
64225;SDS011;50545;56.064;26.178;2022-08-19T06:45:20;8.43;;;5.63;;
64225;SDS011;50545;56.064;26.178;2022-08-19T06:48:01;9.43;;;5.68;;
64225;SDS011;50545;56.064;26.178;2022-08-19T06:50:29;12.50;;;5.80;;
64225;SDS011;50545;56.064;26.178;2022-08-19T06:52:56;9.23;;;5.88;;
64225;SDS011;50545;56.064;26.178;2022-08-19T06:55:28;10.88;;;5.55;;
64225;SDS011;50545;56.064;26.178;2022-08-19T06:58:01;9.57;;;6.35;;
64225;SDS011;50545;56.064;26.178;2022-08-19T07:00:30;8.90;;;6.32;;
64225;SDS011;50545;56.064;26.178;2022-08-19T07:03:02;12.93;;;6.65;;
64225;SDS011;50545;56.064;26.178;2022-08-19T07:05:38;11.23;;;5.68;;
64225;SDS011;50545;56.064;26.178;2022-08-19T07:08:11;9.05;;;5.88;;
64225;SDS011;50545;56.064;26.178;2022-08-19T07:10:42;10.60;;;5.85;;
64225;SDS011;50545;56.064;26.178;2022-08-19T07:13:11;11.18;;;6.30;;
64225;SDS011;50545;56.064;26.178;2022-08-19T07:15:38;9.88;;;5.75;;
64225;SDS011;50545;56.064;26.178;2022-08-19T07:18:05;9.63;;;6.38;;
64225;SDS011;50545;56.064;26.178;2022-08-19T07:20:37;10.55;;;6.40;;
64225;SDS011;50545;56.064;26.178;2022-08-19T07:23:07;10.65;;;6.28;;
64225;SDS011;50545;56.064;26.178;2022-08-19T07:25:36;7.90;;;5.82;;
64225;SDS011;50545;56.064;26.178;2022-08-19T07:28:06;8.73;;;5.28;;
64225;SDS011;50545;56.064;26.178;2022-08-19T07:30:50;13.73;;;6.00;;
64225;SDS011;50545;56.064;26.178;2022-08-19T07:33:18;10.30;;;6.28;;
64225;SDS011;50545;56.064;26.178;2022-08-19T07:35:45;8.90;;;5.82;;
64225;SDS011;50545;56.064;26.178;2022-08-19T07:38:12;10.65;;;5.93;;
64225;SDS011;50545;56.064;26.178;2022-08-19T07:40:41;9.43;;;5.60;;
64225;SDS011;50545;56.064;26.178;2022-08-19T07:43:09;8.45;;;5.82;;
64225;SDS011;50545;56.064;26.178;2022-08-19T07:45:43;10.02;;;6.20;;
64225;SDS011;50545;56.064;26.178;2022-08-19T07:48:11;9.57;;;6.07;;
64225;SDS011;50545;56.064;26.178;2022-08-19T07:50:38;9.95;;;5.60;;
64225;SDS011;50545;56.064;26.178;2022-08-19T07:53:05;10.27;;;6.15;;
64225;SDS011;50545;56.064;26.178;2022-08-19T07:55:33;9.65;;;5.80;;
64225;SDS011;50545;56.064;26.178;2022-08-19T07:58:08;8.07;;;5.85;;
64225;SDS011;50545;56.064;26.178;2022-08-19T08:00:37;9.48;;;5.95;;
64225;SDS011;50545;56.064;26.178;2022-08-19T08:03:04;8.43;;;5.55;;
64225;SDS011;50545;56.064;26.178;2022-08-19T08:05:31;7.70;;;5.57;;
64225;SDS011;50545;56.064;26.178;2022-08-19T08:08:17;8.80;;;5.35;;
64225;SDS011;50545;56.064;26.178;2022-08-19T08:11:13;9.90;;;6.03;;
64225;SDS011;50545;56.064;26.178;2022-08-19T08:13:45;7.30;;;5.10;;
64225;SDS011;50545;56.064;26.178;2022-08-19T08:16:26;9.57;;;5.55;;
64225;SDS011;50545;56.064;26.178;2022-08-19T08:18:56;8.20;;;5.55;;
64225;SDS011;50545;56.064;26.178;2022-08-19T08:21:24;7.13;;;4.75;;
64225;SDS011;50545;56.064;26.178;2022-08-19T08:23:51;8.57;;;5.10;;
64225;SDS011;50545;56.064;26.178;2022-08-19T08:26:22;8.70;;;5.32;;
64225;SDS011;50545;56.064;26.178;2022-08-19T08:28:50;9.93;;;5.40;;
64225;SDS011;50545;56.064;26.178;2022-08-19T08:31:18;8.88;;;5.10;;
64225;SDS011;50545;56.064;26.178;2022-08-19T08:33:46;9.95;;;5.13;;
64225;SDS011;50545;56.064;26.178;2022-08-19T08:36:14;8.20;;;5.18;;
64225;SDS011;50545;56.064;26.178;2022-08-19T08:38:44;8.77;;;5.10;;
64225;SDS011;50545;56.064;26.178;2022-08-19T08:44:11;11.80;;;5.35;;
64225;SDS011;50545;56.064;26.178;2022-08-19T08:46:55;9.35;;;5.38;;
64225;SDS011;50545;56.064;26.178;2022-08-19T08:49:31;8.32;;;4.93;;
64225;SDS011;50545;56.064;26.178;2022-08-19T08:52:30;9.07;;;5.25;;
64225;SDS011;50545;56.064;26.178;2022-08-19T08:55:05;11.73;;;5.43;;
64225;SDS011;50545;56.064;26.178;2022-08-19T09:00:17;11.88;;;5.28;;
64225;SDS011;50545;56.064;26.178;2022-08-19T09:02:47;10.68;;;5.18;;
64225;SDS011;50545;56.064;26.178;2022-08-19T09:05:16;10.23;;;5.55;;
64225;SDS011;50545;56.064;26.178;2022-08-19T09:08:07;10.20;;;5.65;;
64225;SDS011;50545;56.064;26.178;2022-08-19T09:15:48;8.55;;;6.00;;
64225;SDS011;50545;56.064;26.178;2022-08-19T09:18:44;8.70;;;5.40;;
64225;SDS011;50545;56.064;26.178;2022-08-19T09:21:14;8.63;;;5.97;;
64225;SDS011;50545;56.064;26.178;2022-08-19T09:23:42;10.35;;;5.97;;
64225;SDS011;50545;56.064;26.178;2022-08-19T09:26:11;10.57;;;5.70;;
64225;SDS011;50545;56.064;26.178;2022-08-19T09:28:42;10.05;;;6.28;;
64225;SDS011;50545;56.064;26.178;2022-08-19T09:31:15;14.05;;;5.82;;
64225;SDS011;50545;56.064;26.178;2022-08-19T09:33:45;9.52;;;5.60;;
64225;SDS011;50545;56.064;26.178;2022-08-19T09:36:18;8.45;;;6.15;;
64225;SDS011;50545;56.064;26.178;2022-08-19T09:39:00;9.85;;;6.22;;
64225;SDS011;50545;56.064;26.178;2022-08-19T09:41:29;9.00;;;6.53;;
64225;SDS011;50545;56.064;26.178;2022-08-19T09:43:56;12.93;;;6.55;;
64225;SDS011;50545;56.064;26.178;2022-08-19T09:46:26;8.77;;;5.95;;
64225;SDS011;50545;56.064;26.178;2022-08-19T09:48:56;9.05;;;6.18;;
64225;SDS011;50545;56.064;26.178;2022-08-19T09:51:32;12.27;;;5.60;;
64225;SDS011;50545;56.064;26.178;2022-08-19T09:54:03;7.70;;;5.28;;
64225;SDS011;50545;56.064;26.178;2022-08-19T09:56:30;7.78;;;5.10;;
64225;SDS011;50545;56.064;26.178;2022-08-19T09:58:59;9.73;;;5.68;;
64225;SDS011;50545;56.064;26.178;2022-08-19T10:01:28;8.45;;;5.38;;
64225;SDS011;50545;56.064;26.178;2022-08-19T10:03:57;9.82;;;5.80;;
64225;SDS011;50545;56.064;26.178;2022-08-19T10:06:27;8.27;;;5.30;;
64225;SDS011;50545;56.064;26.178;2022-08-19T10:09:11;8.52;;;5.60;;
64225;SDS011;50545;56.064;26.178;2022-08-19T10:11:40;9.98;;;5.53;;
64225;SDS011;50545;56.064;26.178;2022-08-19T10:14:18;9.43;;;5.90;;
64225;SDS011;50545;56.064;26.178;2022-08-19T10:16:48;8.02;;;5.47;;
64225;SDS011;50545;56.064;26.178;2022-08-19T10:19:18;7.68;;;5.32;;
64225;SDS011;50545;56.064;26.178;2022-08-19T10:21:51;12.30;;;5.35;;
64225;SDS011;50545;56.064;26.178;2022-08-19T10:24:25;7.75;;;5.40;;
64225;SDS011;50545;56.064;26.178;2022-08-19T10:26:54;9.52;;;5.07;;
64225;SDS011;50545;56.064;26.178;2022-08-19T10:29:25;8.35;;;5.40;;
64225;SDS011;50545;56.064;26.178;2022-08-19T10:31:58;8.40;;;5.50;;
64225;SDS011;50545;56.064;26.178;2022-08-19T10:34:28;9.15;;;5.22;;
64225;SDS011;50545;56.064;26.178;2022-08-19T10:36:56;13.30;;;5.18;;
64225;SDS011;50545;56.064;26.178;2022-08-19T10:39:27;8.85;;;5.32;;
64225;SDS011;50545;56.064;26.178;2022-08-19T10:41:56;8.98;;;5.38;;
64225;SDS011;50545;56.064;26.178;2022-08-19T10:44:24;11.55;;;5.15;;
64225;SDS011;50545;56.064;26.178;2022-08-19T10:46:58;9.35;;;5.60;;
64225;SDS011;50545;56.064;26.178;2022-08-19T10:49:25;11.35;;;4.90;;
64225;SDS011;50545;56.064;26.178;2022-08-19T10:51:54;8.20;;;4.82;;
64225;SDS011;50545;56.064;26.178;2022-08-19T10:54:45;8.85;;;4.97;;
64225;SDS011;50545;56.064;26.178;2022-08-19T10:57:34;7.38;;;4.82;;
64225;SDS011;50545;56.064;26.178;2022-08-19T11:00:21;7.30;;;4.55;;
64225;SDS011;50545;56.064;26.178;2022-08-19T11:02:50;7.93;;;4.93;;
64225;SDS011;50545;56.064;26.178;2022-08-19T11:05:18;7.88;;;4.95;;
64225;SDS011;50545;56.064;26.178;2022-08-19T11:07:49;7.75;;;4.82;;
64225;SDS011;50545;56.064;26.178;2022-08-19T11:10:18;8.43;;;4.90;;
64225;SDS011;50545;56.064;26.178;2022-08-19T11:12:47;8.43;;;4.43;;
64225;SDS011;50545;56.064;26.178;2022-08-19T11:15:17;6.35;;;4.32;;
64225;SDS011;50545;56.064;26.178;2022-08-19T11:17:44;6.90;;;4.68;;
64225;SDS011;50545;56.064;26.178;2022-08-19T11:20:11;9.35;;;5.15;;
64225;SDS011;50545;56.064;26.178;2022-08-19T11:22:40;6.13;;;4.32;;
64225;SDS011;50545;56.064;26.178;2022-08-19T11:25:09;7.32;;;4.32;;
64225;SDS011;50545;56.064;26.178;2022-08-19T11:27:40;8.13;;;4.78;;
64225;SDS011;50545;56.064;26.178;2022-08-19T11:30:13;7.30;;;4.35;;
64225;SDS011;50545;56.064;26.178;2022-08-19T11:32:41;5.95;;;4.20;;
64225;SDS011;50545;56.064;26.178;2022-08-19T11:35:14;10.48;;;4.82;;
64225;SDS011;50545;56.064;26.178;2022-08-19T11:37:43;7.03;;;4.07;;
64225;SDS011;50545;56.064;26.178;2022-08-19T11:40:10;5.80;;;4.00;;
64225;SDS011;50545;56.064;26.178;2022-08-19T11:42:38;8.15;;;4.15;;
64225;SDS011;50545;56.064;26.178;2022-08-19T11:45:24;5.80;;;4.50;;
64225;SDS011;50545;56.064;26.178;2022-08-19T11:47:52;8.10;;;4.13;;
64225;SDS011;50545;56.064;26.178;2022-08-19T11:50:20;7.07;;;4.25;;
64225;SDS011;50545;56.064;26.178;2022-08-19T11:52:49;7.97;;;4.50;;
64225;SDS011;50545;56.064;26.178;2022-08-19T11:55:20;8.60;;;4.30;;
64225;SDS011;50545;56.064;26.178;2022-08-19T11:57:47;6.35;;;4.20;;
64225;SDS011;50545;56.064;26.178;2022-08-19T12:00:15;8.43;;;4.75;;
64225;SDS011;50545;56.064;26.178;2022-08-19T12:02:42;6.03;;;4.00;;
64225;SDS011;50545;56.064;26.178;2022-08-19T12:05:09;6.72;;;3.85;;
64225;SDS011;50545;56.064;26.178;2022-08-19T12:07:38;5.57;;;3.63;;
64225;SDS011;50545;56.064;26.178;2022-08-19T12:10:08;5.13;;;3.63;;
64225;SDS011;50545;56.064;26.178;2022-08-19T12:12:36;6.70;;;3.85;;
64225;SDS011;50545;56.064;26.178;2022-08-19T12:15:10;8.90;;;3.33;;
64225;SDS011;50545;56.064;26.178;2022-08-19T12:17:38;6.00;;;3.50;;
64225;SDS011;50545;56.064;26.178;2022-08-19T12:20:06;5.18;;;3.35;;
64225;SDS011;50545;56.064;26.178;2022-08-19T12:22:38;5.28;;;3.28;;
64225;SDS011;50545;56.064;26.178;2022-08-19T12:25:08;8.73;;;3.50;;
64225;SDS011;50545;56.064;26.178;2022-08-19T12:27:37;4.60;;;3.45;;
64225;SDS011;50545;56.064;26.178;2022-08-19T12:30:09;5.40;;;3.63;;
64225;SDS011;50545;56.064;26.178;2022-08-19T12:32:38;7.45;;;3.83;;
64225;SDS011;50545;56.064;26.178;2022-08-19T12:35:06;5.13;;;3.30;;
64225;SDS011;50545;56.064;26.178;2022-08-19T12:37:35;5.20;;;3.30;;
64225;SDS011;50545;56.064;26.178;2022-08-19T12:40:03;7.90;;;3.80;;
64225;SDS011;50545;56.064;26.178;2022-08-19T12:42:31;10.32;;;3.92;;
64225;SDS011;50545;56.064;26.178;2022-08-19T12:44:58;5.55;;;3.45;;
64225;SDS011;50545;56.064;26.178;2022-08-19T12:47:25;6.03;;;3.80;;
64225;SDS011;50545;56.064;26.178;2022-08-19T12:49:53;5.80;;;3.72;;
64225;SDS011;50545;56.064;26.178;2022-08-19T12:52:22;5.93;;;3.92;;
64225;SDS011;50545;56.064;26.178;2022-08-19T12:57:24;6.25;;;3.80;;
64225;SDS011;50545;56.064;26.178;2022-08-19T13:00:11;7.53;;;3.85;;
64225;SDS011;50545;56.064;26.178;2022-08-19T13:02:42;8.20;;;4.10;;
64225;SDS011;50545;56.064;26.178;2022-08-19T13:05:16;5.47;;;4.05;;
64225;SDS011;50545;56.064;26.178;2022-08-19T13:07:49;7.18;;;4.05;;
64225;SDS011;50545;56.064;26.178;2022-08-19T13:10:19;6.97;;;4.03;;
64225;SDS011;50545;56.064;26.178;2022-08-19T13:12:49;6.15;;;4.05;;
64225;SDS011;50545;56.064;26.178;2022-08-19T13:15:18;5.90;;;3.58;;
64225;SDS011;50545;56.064;26.178;2022-08-19T13:17:50;6.47;;;3.50;;
64225;SDS011;50545;56.064;26.178;2022-08-19T13:20:19;9.40;;;3.78;;
64225;SDS011;50545;56.064;26.178;2022-08-19T13:22:47;5.82;;;3.75;;
64225;SDS011;50545;56.064;26.178;2022-08-19T13:25:15;6.45;;;3.97;;
64225;SDS011;50545;56.064;26.178;2022-08-19T13:27:45;6.95;;;3.85;;
64225;SDS011;50545;56.064;26.178;2022-08-19T13:30:14;6.65;;;4.03;;
64225;SDS011;50545;56.064;26.178;2022-08-19T13:33:01;5.60;;;3.88;;
64225;SDS011;50545;56.064;26.178;2022-08-19T13:35:43;6.25;;;3.70;;
64225;SDS011;50545;56.064;26.178;2022-08-19T13:38:13;8.00;;;3.90;;
64225;SDS011;50545;56.064;26.178;2022-08-19T13:40:42;8.02;;;4.00;;
64225;SDS011;50545;56.064;26.178;2022-08-19T13:43:09;6.03;;;3.97;;
64225;SDS011;50545;56.064;26.178;2022-08-19T13:45:49;6.97;;;4.10;;
64225;SDS011;50545;56.064;26.178;2022-08-19T13:48:20;8.02;;;4.57;;
64225;SDS011;50545;56.064;26.178;2022-08-19T13:50:48;9.55;;;4.43;;
64225;SDS011;50545;56.064;26.178;2022-08-19T13:53:16;7.38;;;4.10;;
64225;SDS011;50545;56.064;26.178;2022-08-19T13:55:44;6.18;;;4.38;;
64225;SDS011;50545;56.064;26.178;2022-08-19T13:58:12;10.27;;;3.92;;
64225;SDS011;50545;56.064;26.178;2022-08-19T14:00:41;5.25;;;3.92;;
64225;SDS011;50545;56.064;26.178;2022-08-19T14:03:10;7.15;;;3.85;;
64225;SDS011;50545;56.064;26.178;2022-08-19T14:05:37;5.60;;;3.67;;
64225;SDS011;50545;56.064;26.178;2022-08-19T14:08:05;7.13;;;3.83;;
64225;SDS011;50545;56.064;26.178;2022-08-19T14:10:32;6.78;;;3.75;;
64225;SDS011;50545;56.064;26.178;2022-08-19T14:13:00;5.57;;;3.50;;
64225;SDS011;50545;56.064;26.178;2022-08-19T14:15:29;5.93;;;3.35;;
64225;SDS011;50545;56.064;26.178;2022-08-19T14:17:57;5.20;;;3.30;;
64225;SDS011;50545;56.064;26.178;2022-08-19T14:20:25;7.97;;;3.50;;
64225;SDS011;50545;56.064;26.178;2022-08-19T14:22:53;8.82;;;3.45;;
64225;SDS011;50545;56.064;26.178;2022-08-19T14:25:25;5.88;;;3.30;;
64225;SDS011;50545;56.064;26.178;2022-08-19T14:27:54;6.35;;;3.60;;
64225;SDS011;50545;56.064;26.178;2022-08-19T14:30:24;6.80;;;3.40;;
64225;SDS011;50545;56.064;26.178;2022-08-19T14:32:54;8.32;;;3.95;;
64225;SDS011;50545;56.064;26.178;2022-08-19T14:35:22;9.05;;;3.53;;
64225;SDS011;50545;56.064;26.178;2022-08-19T14:37:50;4.85;;;3.30;;
64225;SDS011;50545;56.064;26.178;2022-08-19T14:40:24;8.77;;;3.80;;
64225;SDS011;50545;56.064;26.178;2022-08-19T14:42:54;6.18;;;3.28;;
64225;SDS011;50545;56.064;26.178;2022-08-19T14:45:26;4.97;;;3.45;;
64225;SDS011;50545;56.064;26.178;2022-08-19T14:47:54;6.10;;;3.55;;
64225;SDS011;50545;56.064;26.178;2022-08-19T14:50:22;8.05;;;3.70;;
64225;SDS011;50545;56.064;26.178;2022-08-19T14:52:49;5.50;;;3.67;;
64225;SDS011;50545;56.064;26.178;2022-08-19T14:55:23;6.63;;;3.60;;
64225;SDS011;50545;56.064;26.178;2022-08-19T14:57:50;5.20;;;3.33;;
64225;SDS011;50545;56.064;26.178;2022-08-19T15:00:18;5.65;;;3.70;;
64225;SDS011;50545;56.064;26.178;2022-08-19T15:02:45;5.45;;;3.70;;
64225;SDS011;50545;56.064;26.178;2022-08-19T15:05:12;6.72;;;3.30;;
64225;SDS011;50545;56.064;26.178;2022-08-19T15:07:39;7.70;;;3.78;;
64225;SDS011;50545;56.064;26.178;2022-08-19T15:10:08;5.80;;;3.78;;
64225;SDS011;50545;56.064;26.178;2022-08-19T15:12:37;7.35;;;4.00;;
64225;SDS011;50545;56.064;26.178;2022-08-19T15:15:11;6.13;;;3.70;;
64225;SDS011;50545;56.064;26.178;2022-08-19T15:17:40;7.13;;;3.90;;